sensor_id;sensor_type;location;lat;lon;timestamp;pressure;altitude;pressure_sealevel;temperature;humidity
71907;BME280;59781;52.090;5.030;2023-04-25T00:01:45;101062.66;;;6.40;100.00
71907;BME280;59781;52.090;5.030;2023-04-25T00:04:10;101063.91;;;6.55;100.00
71907;BME280;59781;52.090;5.030;2023-04-25T00:06:37;101061.38;;;6.34;100.00
71907;BME280;59781;52.090;5.030;2023-04-25T00:09:04;101062.88;;;6.27;100.00
71907;BME280;59781;52.090;5.030;2023-04-25T00:11:34;101065.81;;;6.04;100.00
71907;BME280;59781;52.090;5.030;2023-04-25T00:14:00;101054.97;;;6.06;100.00
71907;BME280;59781;52.090;5.030;2023-04-25T00:16:28;101065.63;;;5.96;100.00
71907;BME280;59781;52.090;5.030;2023-04-25T00:18:55;101072.03;;;5.84;100.00
71907;BME280;59781;52.090;5.030;2023-04-25T00:21:22;101069.75;;;5.80;100.00
71907;BME280;59781;52.090;5.030;2023-04-25T00:23:49;101077.25;;;5.86;100.00
71907;BME280;59781;52.090;5.030;2023-04-25T00:26:15;101079.78;;;5.87;100.00
71907;BME280;59781;52.090;5.030;2023-04-25T00:28:41;101078.19;;;6.06;100.00
71907;BME280;59781;52.090;5.030;2023-04-25T00:31:07;101077.34;;;5.74;100.00
71907;BME280;59781;52.090;5.030;2023-04-25T00:33:32;101073.06;;;5.62;100.00
71907;BME280;59781;52.090;5.030;2023-04-25T00:35:58;101076.53;;;5.53;100.00
71907;BME280;59781;52.090;5.030;2023-04-25T00:38:24;101074.06;;;5.61;100.00
71907;BME280;59781;52.090;5.030;2023-04-25T00:40:50;101079.22;;;5.53;100.00
71907;BME280;59781;52.090;5.030;2023-04-25T00:43:15;101089.63;;;5.56;100.00
71907;BME280;59781;52.090;5.030;2023-04-25T00:45:43;101074.88;;;5.31;100.00
71907;BME280;59781;52.090;5.030;2023-04-25T00:48:09;101079.03;;;5.45;100.00
71907;BME280;59781;52.090;5.030;2023-04-25T00:50:35;101090.03;;;5.31;100.00
71907;BME280;59781;52.090;5.030;2023-04-25T00:53:02;101079.09;;;5.34;100.00
71907;BME280;59781;52.090;5.030;2023-04-25T00:55:29;101079.75;;;5.26;100.00
71907;BME280;59781;52.090;5.030;2023-04-25T00:57:57;101079.56;;;5.18;100.00
71907;BME280;59781;52.090;5.030;2023-04-25T01:00:23;101088.53;;;5.17;100.00
71907;BME280;59781;52.090;5.030;2023-04-25T01:02:49;101080.72;;;5.25;100.00
71907;BME280;59781;52.090;5.030;2023-04-25T01:05:15;101084.66;;;5.21;100.00
71907;BME280;59781;52.090;5.030;2023-04-25T01:07:41;101088.47;;;5.28;100.00
71907;BME280;59781;52.090;5.030;2023-04-25T01:10:07;101087.31;;;5.21;100.00
71907;BME280;59781;52.090;5.030;2023-04-25T01:12:33;101090.09;;;5.19;100.00
71907;BME280;59781;52.090;5.030;2023-04-25T01:14:59;101086.00;;;5.15;100.00
71907;BME280;59781;52.090;5.030;2023-04-25T01:17:25;101093.53;;;5.10;100.00
71907;BME280;59781;52.090;5.030;2023-04-25T01:19:52;101091.56;;;5.24;100.00
71907;BME280;59781;52.090;5.030;2023-04-25T01:22:18;101087.31;;;5.21;100.00
71907;BME280;59781;52.090;5.030;2023-04-25T01:24:45;101084.03;;;5.17;100.00
71907;BME280;59781;52.090;5.030;2023-04-25T01:27:11;101084.97;;;5.07;100.00
71907;BME280;59781;52.090;5.030;2023-04-25T01:29:37;101085.09;;;5.05;100.00
71907;BME280;59781;52.090;5.030;2023-04-25T01:32:05;101105.13;;;5.00;100.00
71907;BME280;59781;52.090;5.030;2023-04-25T01:34:32;101096.88;;;5.03;100.00
71907;BME280;59781;52.090;5.030;2023-04-25T01:36:59;101105.81;;;5.13;100.00
71907;BME280;59781;52.090;5.030;2023-04-25T01:39:28;101099.41;;;5.04;100.00
71907;BME280;59781;52.090;5.030;2023-04-25T01:41:54;101107.22;;;5.17;100.00
71907;BME280;59781;52.090;5.030;2023-04-25T01:44:20;101095.84;;;5.36;100.00
71907;BME280;59781;52.090;5.030;2023-04-25T01:46:47;101099.28;;;5.27;100.00
71907;BME280;59781;52.090;5.030;2023-04-25T01:49:13;101110.59;;;5.19;100.00
71907;BME280;59781;52.090;5.030;2023-04-25T01:51:40;101114.81;;;5.33;100.00
71907;BME280;59781;52.090;5.030;2023-04-25T01:54:08;101116.34;;;5.35;100.00
71907;BME280;59781;52.090;5.030;2023-04-25T01:56:37;101118.25;;;5.24;100.00
71907;BME280;59781;52.090;5.030;2023-04-25T01:59:05;101117.56;;;5.10;100.00
71907;BME280;59781;52.090;5.030;2023-04-25T02:01:49;101121.53;;;4.95;100.00
71907;BME280;59781;52.090;5.030;2023-04-25T02:04:22;101125.31;;;4.93;100.00
71907;BME280;59781;52.090;5.030;2023-04-25T02:06:48;101128.00;;;4.81;100.00
71907;BME280;59781;52.090;5.030;2023-04-25T02:09:14;101127.19;;;4.70;100.00
71907;BME280;59781;52.090;5.030;2023-04-25T02:11:45;101124.03;;;4.76;100.00
71907;BME280;59781;52.090;5.030;2023-04-25T02:14:43;101127.16;;;4.81;100.00
71907;BME280;59781;52.090;5.030;2023-04-25T02:17:16;101126.31;;;4.80;100.00
71907;BME280;59781;52.090;5.030;2023-04-25T02:19:41;101133.56;;;4.57;100.00
71907;BME280;59781;52.090;5.030;2023-04-25T02:22:07;101127.72;;;4.64;100.00
71907;BME280;59781;52.090;5.030;2023-04-25T02:24:33;101131.53;;;4.39;100.00
71907;BME280;59781;52.090;5.030;2023-04-25T02:27:00;101123.03;;;4.45;100.00
71907;BME280;59781;52.090;5.030;2023-04-25T02:29:27;101128.28;;;4.35;100.00
71907;BME280;59781;52.090;5.030;2023-04-25T02:31:52;101127.75;;;4.41;100.00
71907;BME280;59781;52.090;5.030;2023-04-25T02:34:18;101133.41;;;4.59;100.00
71907;BME280;59781;52.090;5.030;2023-04-25T02:36:44;101121.91;;;4.58;100.00
71907;BME280;59781;52.090;5.030;2023-04-25T02:39:10;101130.00;;;5.00;100.00
71907;BME280;59781;52.090;5.030;2023-04-25T02:41:36;101134.44;;;5.11;100.00
71907;BME280;59781;52.090;5.030;2023-04-25T02:44:01;101125.06;;;4.96;100.00
71907;BME280;59781;52.090;5.030;2023-04-25T02:46:27;101124.03;;;5.08;100.00
71907;BME280;59781;52.090;5.030;2023-04-25T02:48:53;101127.94;;;5.04;100.00
71907;BME280;59781;52.090;5.030;2023-04-25T02:51:18;101128.66;;;5.06;100.00
71907;BME280;59781;52.090;5.030;2023-04-25T02:53:44;101136.16;;;5.12;100.00
71907;BME280;59781;52.090;5.030;2023-04-25T02:56:10;101130.75;;;5.23;100.00
71907;BME280;59781;52.090;5.030;2023-04-25T02:58:36;101132.56;;;5.23;100.00
71907;BME280;59781;52.090;5.030;2023-04-25T03:01:01;101134.06;;;5.36;100.00
71907;BME280;59781;52.090;5.030;2023-04-25T03:03:27;101134.28;;;5.44;100.00
71907;BME280;59781;52.090;5.030;2023-04-25T03:05:53;101127.66;;;5.48;100.00
71907;BME280;59781;52.090;5.030;2023-04-25T03:08:24;101126.88;;;5.58;100.00
71907;BME280;59781;52.090;5.030;2023-04-25T03:10:50;101125.38;;;5.65;100.00
71907;BME280;59781;52.090;5.030;2023-04-25T03:13:17;101133.78;;;5.60;100.00
71907;BME280;59781;52.090;5.030;2023-04-25T03:15:43;101143.31;;;5.74;100.00
71907;BME280;59781;52.090;5.030;2023-04-25T03:18:09;101156.97;;;5.60;100.00
71907;BME280;59781;52.090;5.030;2023-04-25T03:20:35;101158.28;;;5.65;100.00
71907;BME280;59781;52.090;5.030;2023-04-25T03:23:02;101162.81;;;5.44;100.00
71907;BME280;59781;52.090;5.030;2023-04-25T03:25:28;101162.59;;;5.36;100.00
71907;BME280;59781;52.090;5.030;2023-04-25T03:27:54;101152.97;;;5.24;100.00
71907;BME280;59781;52.090;5.030;2023-04-25T03:30:21;101152.38;;;5.41;100.00
71907;BME280;59781;52.090;5.030;2023-04-25T03:32:47;101148.97;;;5.39;100.00
71907;BME280;59781;52.090;5.030;2023-04-25T03:35:16;101147.16;;;5.39;100.00
71907;BME280;59781;52.090;5.030;2023-04-25T03:37:42;101149.44;;;5.23;100.00
71907;BME280;59781;52.090;5.030;2023-04-25T03:40:12;101145.78;;;5.24;100.00
71907;BME280;59781;52.090;5.030;2023-04-25T03:42:58;101154.25;;;5.29;100.00
71907;BME280;59781;52.090;5.030;2023-04-25T03:45:23;101138.00;;;5.32;100.00
71907;BME280;59781;52.090;5.030;2023-04-25T03:47:52;101149.53;;;5.33;100.00
71907;BME280;59781;52.090;5.030;2023-04-25T03:50:18;101150.28;;;5.24;100.00
71907;BME280;59781;52.090;5.030;2023-04-25T03:52:43;101153.66;;;5.26;100.00
71907;BME280;59781;52.090;5.030;2023-04-25T03:55:10;101154.91;;;5.22;100.00
71907;BME280;59781;52.090;5.030;2023-04-25T03:57:36;101155.38;;;5.27;100.00
71907;BME280;59781;52.090;5.030;2023-04-25T04:00:02;101165.06;;;5.28;100.00
71907;BME280;59781;52.090;5.030;2023-04-25T04:02:38;101164.16;;;5.38;100.00
71907;BME280;59781;52.090;5.030;2023-04-25T04:05:05;101170.47;;;5.37;100.00
71907;BME280;59781;52.090;5.030;2023-04-25T04:07:33;101177.78;;;5.35;100.00
71907;BME280;59781;52.090;5.030;2023-04-25T04:10:06;101177.56;;;5.27;100.00
71907;BME280;59781;52.090;5.030;2023-04-25T04:12:36;101180.19;;;5.38;100.00
71907;BME280;59781;52.090;5.030;2023-04-25T04:15:04;101174.97;;;5.58;100.00
71907;BME280;59781;52.090;5.030;2023-04-25T04:17:32;101176.22;;;5.74;100.00
71907;BME280;59781;52.090;5.030;2023-04-25T04:19:58;101181.00;;;5.18;100.00
71907;BME280;59781;52.090;5.030;2023-04-25T04:22:24;101183.13;;;5.35;100.00
71907;BME280;59781;52.090;5.030;2023-04-25T04:24:53;101193.59;;;5.27;100.00
71907;BME280;59781;52.090;5.030;2023-04-25T04:27:29;101194.78;;;5.34;100.00
71907;BME280;59781;52.090;5.030;2023-04-25T04:30:14;101202.16;;;5.42;100.00
71907;BME280;59781;52.090;5.030;2023-04-25T04:32:56;101209.25;;;5.32;100.00
71907;BME280;59781;52.090;5.030;2023-04-25T04:35:23;101201.34;;;5.30;100.00
71907;BME280;59781;52.090;5.030;2023-04-25T04:37:50;101198.94;;;5.27;100.00
71907;BME280;59781;52.090;5.030;2023-04-25T04:40:19;101205.75;;;5.20;100.00
71907;BME280;59781;52.090;5.030;2023-04-25T04:43:04;101191.06;;;5.46;100.00
71907;BME280;59781;52.090;5.030;2023-04-25T04:45:48;101199.19;;;5.24;100.00
71907;BME280;59781;52.090;5.030;2023-04-25T04:48:32;101189.44;;;5.55;100.00
71907;BME280;59781;52.090;5.030;2023-04-25T04:51:27;101207.22;;;5.24;100.00
71907;BME280;59781;52.090;5.030;2023-04-25T04:53:52;101197.72;;;5.31;100.00
71907;BME280;59781;52.090;5.030;2023-04-25T04:56:18;101201.81;;;5.56;100.00
71907;BME280;59781;52.090;5.030;2023-04-25T04:58:51;101208.00;;;5.57;100.00
71907;BME280;59781;52.090;5.030;2023-04-25T05:01:37;101212.25;;;5.59;100.00
71907;BME280;59781;52.090;5.030;2023-04-25T05:04:23;101217.63;;;5.80;100.00
71907;BME280;59781;52.090;5.030;2023-04-25T05:07:03;101217.72;;;5.79;100.00
71907;BME280;59781;52.090;5.030;2023-04-25T05:09:29;101220.72;;;6.06;100.00
71907;BME280;59781;52.090;5.030;2023-04-25T05:12:15;101226.41;;;5.71;100.00
71907;BME280;59781;52.090;5.030;2023-04-25T05:15:16;101230.94;;;5.91;100.00
71907;BME280;59781;52.090;5.030;2023-04-25T05:18:09;101235.75;;;5.97;100.00
71907;BME280;59781;52.090;5.030;2023-04-25T05:20:45;101238.25;;;5.78;100.00
71907;BME280;59781;52.090;5.030;2023-04-25T05:23:30;101247.59;;;5.84;100.00
71907;BME280;59781;52.090;5.030;2023-04-25T05:26:04;101246.97;;;5.91;100.00
71907;BME280;59781;52.090;5.030;2023-04-25T05:28:44;101244.78;;;6.06;100.00
71907;BME280;59781;52.090;5.030;2023-04-25T05:31:35;101244.22;;;6.02;100.00
71907;BME280;59781;52.090;5.030;2023-04-25T05:34:07;101249.06;;;6.18;100.00
71907;BME280;59781;52.090;5.030;2023-04-25T05:36:43;101246.97;;;6.12;100.00
71907;BME280;59781;52.090;5.030;2023-04-25T05:39:09;101254.69;;;6.15;100.00
71907;BME280;59781;52.090;5.030;2023-04-25T05:41:54;101260.94;;;6.25;100.00
71907;BME280;59781;52.090;5.030;2023-04-25T05:44:42;101261.69;;;6.37;100.00
71907;BME280;59781;52.090;5.030;2023-04-25T05:47:28;101258.66;;;6.42;100.00
71907;BME280;59781;52.090;5.030;2023-04-25T05:50:00;101263.72;;;6.45;100.00
71907;BME280;59781;52.090;5.030;2023-04-25T05:52:43;101264.03;;;6.51;100.00
71907;BME280;59781;52.090;5.030;2023-04-25T05:55:19;101269.84;;;6.66;100.00
71907;BME280;59781;52.090;5.030;2023-04-25T05:57:45;101274.13;;;6.69;100.00
71907;BME280;59781;52.090;5.030;2023-04-25T06:00:13;101268.41;;;6.93;100.00
71907;BME280;59781;52.090;5.030;2023-04-25T06:02:42;101272.97;;;7.21;100.00
71907;BME280;59781;52.090;5.030;2023-04-25T06:05:09;101276.09;;;7.55;100.00
71907;BME280;59781;52.090;5.030;2023-04-25T06:07:35;101275.22;;;7.26;100.00
71907;BME280;59781;52.090;5.030;2023-04-25T06:10:02;101287.94;;;7.53;100.00
71907;BME280;59781;52.090;5.030;2023-04-25T06:12:32;101275.94;;;7.57;100.00
71907;BME280;59781;52.090;5.030;2023-04-25T06:15:03;101283.72;;;7.50;100.00
71907;BME280;59781;52.090;5.030;2023-04-25T06:17:30;101288.91;;;7.23;100.00
71907;BME280;59781;52.090;5.030;2023-04-25T06:19:56;101288.16;;;8.74;100.00
71907;BME280;59781;52.090;5.030;2023-04-25T06:22:22;101280.44;;;9.87;100.00
71907;BME280;59781;52.090;5.030;2023-04-25T06:24:48;101287.19;;;10.95;100.00
71907;BME280;59781;52.090;5.030;2023-04-25T06:27:14;101289.50;;;11.32;100.00
71907;BME280;59781;52.090;5.030;2023-04-25T06:29:40;101290.34;;;10.82;100.00
71907;BME280;59781;52.090;5.030;2023-04-25T06:32:06;101292.66;;;10.77;100.00
71907;BME280;59781;52.090;5.030;2023-04-25T06:34:32;101290.84;;;10.86;100.00
71907;BME280;59781;52.090;5.030;2023-04-25T06:36:58;101288.16;;;10.86;100.00
71907;BME280;59781;52.090;5.030;2023-04-25T06:39:24;101306.25;;;11.76;100.00
71907;BME280;59781;52.090;5.030;2023-04-25T06:41:50;101307.63;;;11.97;100.00
71907;BME280;59781;52.090;5.030;2023-04-25T06:44:48;101304.66;;;10.83;100.00
71907;BME280;59781;52.090;5.030;2023-04-25T06:47:14;101314.09;;;11.37;100.00
71907;BME280;59781;52.090;5.030;2023-04-25T06:49:41;101313.41;;;10.07;100.00
71907;BME280;59781;52.090;5.030;2023-04-25T06:52:08;101320.34;;;9.74;100.00
71907;BME280;59781;52.090;5.030;2023-04-25T06:54:34;101324.41;;;9.60;100.00
71907;BME280;59781;52.090;5.030;2023-04-25T06:57:07;101315.66;;;9.58;100.00
71907;BME280;59781;52.090;5.030;2023-04-25T06:59:34;101323.38;;;9.26;100.00
71907;BME280;59781;52.090;5.030;2023-04-25T07:01:59;101326.56;;;9.11;100.00
71907;BME280;59781;52.090;5.030;2023-04-25T07:04:25;101329.84;;;8.78;100.00
71907;BME280;59781;52.090;5.030;2023-04-25T07:06:54;101323.44;;;8.88;100.00
71907;BME280;59781;52.090;5.030;2023-04-25T07:09:28;101332.44;;;8.60;100.00
71907;BME280;59781;52.090;5.030;2023-04-25T07:11:54;101328.44;;;8.74;100.00
71907;BME280;59781;52.090;5.030;2023-04-25T07:14:20;101334.91;;;8.81;100.00
71907;BME280;59781;52.090;5.030;2023-04-25T07:16:46;101332.38;;;8.79;100.00
71907;BME280;59781;52.090;5.030;2023-04-25T07:19:12;101337.72;;;8.23;100.00
71907;BME280;59781;52.090;5.030;2023-04-25T07:21:38;101358.06;;;8.16;100.00
71907;BME280;59781;52.090;5.030;2023-04-25T07:24:05;101355.13;;;7.90;100.00
71907;BME280;59781;52.090;5.030;2023-04-25T07:26:35;101366.78;;;7.50;100.00
71907;BME280;59781;52.090;5.030;2023-04-25T07:29:17;101359.97;;;7.27;100.00
71907;BME280;59781;52.090;5.030;2023-04-25T07:31:43;101367.50;;;7.62;100.00
71907;BME280;59781;52.090;5.030;2023-04-25T07:34:08;101369.72;;;7.37;100.00
71907;BME280;59781;52.090;5.030;2023-04-25T07:36:36;101364.78;;;7.33;100.00
71907;BME280;59781;52.090;5.030;2023-04-25T07:39:02;101363.66;;;7.45;100.00
71907;BME280;59781;52.090;5.030;2023-04-25T07:41:27;101366.22;;;7.46;100.00
71907;BME280;59781;52.090;5.030;2023-04-25T07:43:53;101363.53;;;7.46;100.00
71907;BME280;59781;52.090;5.030;2023-04-25T07:46:20;101367.41;;;7.92;100.00
71907;BME280;59781;52.090;5.030;2023-04-25T07:48:45;101369.91;;;8.32;100.00
71907;BME280;59781;52.090;5.030;2023-04-25T07:51:11;101358.44;;;9.52;100.00
71907;BME280;59781;52.090;5.030;2023-04-25T07:53:37;101362.69;;;9.90;99.38
71907;BME280;59781;52.090;5.030;2023-04-25T07:56:07;101367.06;;;9.91;97.47
71907;BME280;59781;52.090;5.030;2023-04-25T07:58:36;101372.91;;;10.22;94.10
71907;BME280;59781;52.090;5.030;2023-04-25T08:01:05;101373.75;;;10.92;89.04
71907;BME280;59781;52.090;5.030;2023-04-25T08:03:52;101369.88;;;12.69;87.47
71907;BME280;59781;52.090;5.030;2023-04-25T08:06:28;101365.91;;;12.87;80.24
71907;BME280;59781;52.090;5.030;2023-04-25T08:09:11;101371.91;;;13.61;79.55
71907;BME280;59781;52.090;5.030;2023-04-25T08:11:39;101366.91;;;13.73;73.58
71907;BME280;59781;52.090;5.030;2023-04-25T08:14:07;101367.91;;;13.49;68.45
71907;BME280;59781;52.090;5.030;2023-04-25T08:16:35;101385.16;;;13.48;70.48
71907;BME280;59781;52.090;5.030;2023-04-25T08:19:02;101372.66;;;13.78;68.54
71907;BME280;59781;52.090;5.030;2023-04-25T08:21:28;101387.19;;;13.46;76.16
71907;BME280;59781;52.090;5.030;2023-04-25T08:23:57;101392.41;;;13.87;73.12
71907;BME280;59781;52.090;5.030;2023-04-25T08:26:28;101390.75;;;13.77;67.81
71907;BME280;59781;52.090;5.030;2023-04-25T08:28:55;101392.16;;;14.95;67.94
71907;BME280;59781;52.090;5.030;2023-04-25T08:31:21;101395.56;;;14.13;67.22
71907;BME280;59781;52.090;5.030;2023-04-25T08:33:59;101395.53;;;13.98;68.46
71907;BME280;59781;52.090;5.030;2023-04-25T08:36:34;101405.50;;;12.07;74.13
71907;BME280;59781;52.090;5.030;2023-04-25T08:39:00;101399.06;;;12.08;75.97
71907;BME280;59781;52.090;5.030;2023-04-25T08:41:26;101392.38;;;13.56;73.30
71907;BME280;59781;52.090;5.030;2023-04-25T08:43:55;101404.84;;;14.42;73.31
71907;BME280;59781;52.090;5.030;2023-04-25T08:46:23;101408.72;;;13.39;69.12
71907;BME280;59781;52.090;5.030;2023-04-25T08:49:05;101410.88;;;12.88;71.92
71907;BME280;59781;52.090;5.030;2023-04-25T08:51:32;101404.16;;;14.48;64.81
71907;BME280;59781;52.090;5.030;2023-04-25T08:54:09;101418.78;;;13.54;63.64
71907;BME280;59781;52.090;5.030;2023-04-25T08:56:38;101428.81;;;12.24;70.37
71907;BME280;59781;52.090;5.030;2023-04-25T08:59:05;101441.94;;;10.67;81.68
71907;BME280;59781;52.090;5.030;2023-04-25T09:01:34;101443.25;;;9.91;84.30
71907;BME280;59781;52.090;5.030;2023-04-25T09:04:03;101443.72;;;9.87;87.99
71907;BME280;59781;52.090;5.030;2023-04-25T09:06:30;101454.72;;;9.93;93.92
71907;BME280;59781;52.090;5.030;2023-04-25T09:09:05;101450.59;;;12.63;77.52
71907;BME280;59781;52.090;5.030;2023-04-25T09:11:35;101450.91;;;14.19;68.29
71907;BME280;59781;52.090;5.030;2023-04-25T09:14:22;101449.97;;;15.10;65.31
71907;BME280;59781;52.090;5.030;2023-04-25T09:17:08;101458.97;;;14.73;62.94
71907;BME280;59781;52.090;5.030;2023-04-25T09:19:40;101460.25;;;14.16;63.53
71907;BME280;59781;52.090;5.030;2023-04-25T09:22:13;101477.94;;;12.93;65.90
71907;BME280;59781;52.090;5.030;2023-04-25T09:24:42;101483.00;;;12.31;69.02
71907;BME280;59781;52.090;5.030;2023-04-25T09:27:12;101490.28;;;11.12;71.92
71907;BME280;59781;52.090;5.030;2023-04-25T09:29:43;101484.75;;;10.34;79.94
71907;BME280;59781;52.090;5.030;2023-04-25T09:32:11;101492.28;;;10.30;79.09
71907;BME280;59781;52.090;5.030;2023-04-25T09:34:44;101498.31;;;12.06;85.96
71907;BME280;59781;52.090;5.030;2023-04-25T09:37:17;101514.50;;;10.15;100.00
71907;BME280;59781;52.090;5.030;2023-04-25T09:40:07;101528.00;;;8.74;100.00
71907;BME280;59781;52.090;5.030;2023-04-25T09:42:48;101537.69;;;8.08;100.00
71907;BME280;59781;52.090;5.030;2023-04-25T09:45:14;101543.56;;;7.92;100.00
71907;BME280;59781;52.090;5.030;2023-04-25T09:47:43;101540.50;;;8.25;100.00
71907;BME280;59781;52.090;5.030;2023-04-25T09:50:17;101547.06;;;7.83;100.00
71907;BME280;59781;52.090;5.030;2023-04-25T09:53:05;101543.66;;;7.81;100.00
71907;BME280;59781;52.090;5.030;2023-04-25T09:56:00;101546.81;;;7.95;100.00
71907;BME280;59781;52.090;5.030;2023-04-25T09:58:30;101554.19;;;8.13;100.00
71907;BME280;59781;52.090;5.030;2023-04-25T10:01:10;101554.50;;;8.19;100.00
71907;BME280;59781;52.090;5.030;2023-04-25T10:03:50;101552.16;;;8.45;100.00
71907;BME280;59781;52.090;5.030;2023-04-25T10:06:34;101554.44;;;8.59;100.00
71907;BME280;59781;52.090;5.030;2023-04-25T10:09:01;101559.47;;;9.20;100.00
71907;BME280;59781;52.090;5.030;2023-04-25T10:11:30;101549.69;;;9.76;100.00
71907;BME280;59781;52.090;5.030;2023-04-25T10:13:59;101546.91;;;9.58;100.00
71907;BME280;59781;52.090;5.030;2023-04-25T10:16:26;101544.72;;;10.72;100.00
71907;BME280;59781;52.090;5.030;2023-04-25T10:18:53;101546.69;;;10.52;100.00
71907;BME280;59781;52.090;5.030;2023-04-25T10:21:21;101545.91;;;10.77;94.53
71907;BME280;59781;52.090;5.030;2023-04-25T10:23:49;101537.81;;;11.73;89.32
71907;BME280;59781;52.090;5.030;2023-04-25T10:26:16;101537.53;;;11.24;89.70
71907;BME280;59781;52.090;5.030;2023-04-25T10:29:02;101542.53;;;11.19;90.52
71907;BME280;59781;52.090;5.030;2023-04-25T10:31:29;101546.84;;;10.86;91.28
71907;BME280;59781;52.090;5.030;2023-04-25T10:33:56;101545.50;;;11.94;92.19
71907;BME280;59781;52.090;5.030;2023-04-25T10:36:24;101547.53;;;12.75;82.47
71907;BME280;59781;52.090;5.030;2023-04-25T10:38:52;101543.66;;;12.77;86.11
71907;BME280;59781;52.090;5.030;2023-04-25T10:41:20;101540.75;;;13.99;79.17
71907;BME280;59781;52.090;5.030;2023-04-25T10:43:49;101538.56;;;15.17;75.58
71907;BME280;59781;52.090;5.030;2023-04-25T10:46:26;101536.72;;;15.18;70.92
71907;BME280;59781;52.090;5.030;2023-04-25T10:58:48;101541.09;;;14.27;71.67
71907;BME280;59781;52.090;5.030;2023-04-25T11:01:19;101540.28;;;12.51;74.79
71907;BME280;59781;52.090;5.030;2023-04-25T11:03:47;101551.88;;;11.59;79.49
71907;BME280;59781;52.090;5.030;2023-04-25T11:06:23;101563.31;;;10.47;90.65
71907;BME280;59781;52.090;5.030;2023-04-25T11:08:53;101564.53;;;10.35;95.02
71907;BME280;59781;52.090;5.030;2023-04-25T11:11:19;101560.00;;;11.33;92.15
71907;BME280;59781;52.090;5.030;2023-04-25T11:13:48;101572.94;;;10.50;93.23
71907;BME280;59781;52.090;5.030;2023-04-25T11:16:16;101568.16;;;9.89;100.00
71907;BME280;59781;52.090;5.030;2023-04-25T11:18:43;101581.28;;;9.08;100.00
71907;BME280;59781;52.090;5.030;2023-04-25T11:21:10;101576.00;;;9.35;98.46
71907;BME280;59781;52.090;5.030;2023-04-25T11:23:37;101574.28;;;9.81;93.67
71907;BME280;59781;52.090;5.030;2023-04-25T11:26:03;101573.16;;;10.56;87.04
71907;BME280;59781;52.090;5.030;2023-04-25T11:28:29;101569.41;;;10.67;90.81
71907;BME280;59781;52.090;5.030;2023-04-25T11:30:55;101570.53;;;10.47;87.32
71907;BME280;59781;52.090;5.030;2023-04-25T11:33:25;101565.25;;;10.55;84.03
71907;BME280;59781;52.090;5.030;2023-04-25T11:35:55;101569.03;;;11.24;86.26
71907;BME280;59781;52.090;5.030;2023-04-25T11:38:25;101572.94;;;11.03;84.68
71907;BME280;59781;52.090;5.030;2023-04-25T11:40:54;101564.56;;;11.92;82.42
71907;BME280;59781;52.090;5.030;2023-04-25T11:43:21;101567.31;;;13.16;76.39
71907;BME280;59781;52.090;5.030;2023-04-25T11:45:49;101562.22;;;12.64;77.57
71907;BME280;59781;52.090;5.030;2023-04-25T11:48:16;101567.66;;;11.45;85.51
71907;BME280;59781;52.090;5.030;2023-04-25T11:50:42;101581.97;;;11.20;90.93
71907;BME280;59781;52.090;5.030;2023-04-25T11:53:08;101594.50;;;10.22;100.00
71907;BME280;59781;52.090;5.030;2023-04-25T11:55:34;101600.19;;;9.82;100.00
71907;BME280;59781;52.090;5.030;2023-04-25T11:58:01;101610.94;;;9.35;100.00
71907;BME280;59781;52.090;5.030;2023-04-25T12:00:27;101610.97;;;8.77;100.00
71907;BME280;59781;52.090;5.030;2023-04-25T12:02:54;101618.06;;;9.07;100.00
71907;BME280;59781;52.090;5.030;2023-04-25T12:05:26;101615.56;;;9.53;100.00
71907;BME280;59781;52.090;5.030;2023-04-25T12:07:53;101616.53;;;9.61;100.00
71907;BME280;59781;52.090;5.030;2023-04-25T12:10:19;101604.03;;;10.80;100.00
71907;BME280;59781;52.090;5.030;2023-04-25T12:12:47;101602.06;;;11.26;100.00
71907;BME280;59781;52.090;5.030;2023-04-25T12:15:16;101600.69;;;11.99;100.00
71907;BME280;59781;52.090;5.030;2023-04-25T12:17:50;101607.72;;;13.17;99.42
71907;BME280;59781;52.090;5.030;2023-04-25T12:20:24;101598.00;;;14.27;89.70
71907;BME280;59781;52.090;5.030;2023-04-25T12:22:52;101596.81;;;13.83;87.67
71907;BME280;59781;52.090;5.030;2023-04-25T12:25:34;101607.03;;;13.07;99.12
71907;BME280;59781;52.090;5.030;2023-04-25T12:28:29;101605.44;;;12.56;94.02
71907;BME280;59781;52.090;5.030;2023-04-25T12:31:06;101609.16;;;11.27;96.40
71907;BME280;59781;52.090;5.030;2023-04-25T12:33:35;101614.63;;;11.61;100.00
71907;BME280;59781;52.090;5.030;2023-04-25T12:36:04;101609.41;;;11.15;85.45
71907;BME280;59781;52.090;5.030;2023-04-25T12:38:38;101604.31;;;12.75;77.88
71907;BME280;59781;52.090;5.030;2023-04-25T12:41:06;101612.28;;;13.09;72.93
71907;BME280;59781;52.090;5.030;2023-04-25T12:43:32;101620.41;;;13.33;71.92
71907;BME280;59781;52.090;5.030;2023-04-25T12:45:58;101611.13;;;11.42;74.73
71907;BME280;59781;52.090;5.030;2023-04-25T12:48:24;101619.88;;;11.18;81.35
71907;BME280;59781;52.090;5.030;2023-04-25T12:50:50;101622.22;;;11.13;88.78
71907;BME280;59781;52.090;5.030;2023-04-25T12:53:21;101618.94;;;12.48;77.02
71907;BME280;59781;52.090;5.030;2023-04-25T12:55:49;101619.81;;;12.56;68.67
71907;BME280;59781;52.090;5.030;2023-04-25T12:58:18;101620.44;;;11.22;67.49
71907;BME280;59781;52.090;5.030;2023-04-25T13:00:46;101619.41;;;13.34;65.13
71907;BME280;59781;52.090;5.030;2023-04-25T13:03:11;101614.16;;;13.57;63.39
71907;BME280;59781;52.090;5.030;2023-04-25T13:05:38;101615.94;;;13.89;63.34
71907;BME280;59781;52.090;5.030;2023-04-25T13:08:05;101612.09;;;14.15;56.33
71907;BME280;59781;52.090;5.030;2023-04-25T13:10:30;101621.91;;;13.68;56.56
71907;BME280;59781;52.090;5.030;2023-04-25T13:12:56;101614.72;;;13.92;60.58
71907;BME280;59781;52.090;5.030;2023-04-25T13:15:22;101623.69;;;13.92;56.63